Time;durP1;ratioP1;P1;durP2;ratioP2;P2;SDS_P1;SDS_P2;PMS_P1;PMS_P2;Temp;Humidity;BMP_temperature;BMP_pressure;BME280_temperature;BME280_humidity;BME280_pressure;Samples;Min_cycle;Max_cycle;Signal;HPM_P1;HPM_P2
2023/09/16 00:01:12;;;;;;;9.95;2.80;;;;;;;;;;4994422;28;99882;-89
2023/09/16 00:03:39;;;;;;;7.20;2.60;;;;;;;;;;5010838;28;99394;-90
2023/09/16 00:06:06;;;;;;;6.80;2.65;;;;;;;;;;4972738;28;98551;-89
2023/09/16 00:08:33;;;;;;;6.93;2.58;;;;;;;;;;4998805;28;101810;-91
2023/09/16 00:11:00;;;;;;;8.40;3.00;;;;;;;;;;5008908;28;98808;-90
2023/09/16 00:13:27;;;;;;;5.95;2.70;;;;;;;;;;4994129;28;98659;-89
2023/09/16 00:15:54;;;;;;;7.20;2.70;;;;;;;;;;4994152;28;101441;-89
2023/09/16 00:18:21;;;;;;;6.88;2.83;;;;;;;;;;4989825;28;98487;-87
2023/09/16 00:20:49;;;;;;;7.32;2.70;;;;;;;;;;5010307;28;98549;-88
2023/09/16 00:23:15;;;;;;;;;;;;;;;;;;5013580;28;98519;-88
2023/09/16 00:25:42;;;;;;;15.82;3.30;;;;;;;;;;5015691;28;119389;-89
2023/09/16 00:28:08;;;;;;;13.18;2.97;;;;;;;;;;5015830;28;100104;-88
2023/09/16 00:30:36;;;;;;;8.27;2.70;;;;;;;;;;5017912;28;99489;-88
2023/09/16 00:33:05;;;;;;;9.70;2.90;;;;;;;;;;5020350;28;98935;-88
2023/09/16 00:35:32;;;;;;;7.13;2.75;;;;;;;;;;5023698;28;99181;-88
2023/09/16 00:37:58;;;;;;;6.30;2.80;;;;;;;;;;4986096;28;101145;-88
2023/09/16 00:40:26;;;;;;;6.95;2.97;;;;;;;;;;5000905;28;98643;-88
2023/09/16 00:42:52;;;;;;;;;;;;;;;;;;5000684;28;99321;-88
2023/09/16 00:45:19;;;;;;;5.57;2.45;;;;;;;;;;5004068;28;100601;-88
2023/09/16 00:47:46;;;;;;;5.25;2.33;;;;;;;;;;5004866;28;98519;-89
2023/09/16 00:50:13;;;;;;;6.53;2.60;;;;;;;;;;4998300;28;99203;-88
2023/09/16 00:52:45;;;;;;;6.05;2.60;;;;;;;;;;5009941;28;98470;-89
2023/09/16 00:55:12;;;;;;;6.57;2.60;;;;;;;;;;5028529;28;98473;-88
2023/09/16 00:57:39;;;;;;;6.80;3.00;;;;;;;;;;4982938;28;102695;-88
2023/09/16 01:00:07;;;;;;;;;;;;;;;;;;5010648;28;98470;-88
2023/09/16 01:02:36;;;;;;;5.97;2.90;;;;;;;;;;4996536;28;116887;-89
2023/09/16 01:05:04;;;;;;;6.82;2.50;;;;;;;;;;4993609;28;99334;-89
2023/09/16 01:07:31;;;;;;;4.93;2.40;;;;;;;;;;5012422;28;97793;-89
2023/09/16 01:09:58;;;;;;;6.20;2.80;;;;;;;;;;5012716;28;98864;-86
2023/09/16 01:12:24;;;;;;;6.68;2.80;;;;;;;;;;4999437;28;98842;-86
2023/09/16 01:14:51;;;;;;;7.43;2.72;;;;;;;;;;5010094;28;99236;-86
2023/09/16 01:17:21;;;;;;;5.93;2.75;;;;;;;;;;4992369;28;100568;-86
2023/09/16 01:19:52;;;;;;;7.13;2.70;;;;;;;;;;4989827;28;100143;-86
2023/09/16 01:22:20;;;;;;;6.45;2.75;;;;;;;;;;5008889;28;99329;-86
2023/09/16 01:24:54;;;;;;;7.45;2.90;;;;;;;;;;4971828;28;100230;-85
2023/09/16 01:27:21;;;;;;;6.53;2.72;;;;;;;;;;4973075;28;98604;-85
2023/09/16 01:29:48;;;;;;;6.43;2.97;;;;;;;;;;4973123;28;100051;-87
2023/09/16 01:32:16;;;;;;;6.70;3.00;;;;;;;;;;4995654;28;98289;-88
2023/09/16 01:34:49;;;;;;;8.20;3.08;;;;;;;;;;5011288;28;99804;-87
2023/09/16 01:37:20;;;;;;;5.55;2.78;;;;;;;;;;5019288;28;99655;-88
2023/09/16 01:39:49;;;;;;;6.68;2.85;;;;;;;;;;4980092;28;99364;-88
2023/09/16 01:42:16;;;;;;;6.75;2.90;;;;;;;;;;4999894;28;99493;-89
2023/09/16 01:44:46;;;;;;;6.47;2.85;;;;;;;;;;4975385;28;102894;-89
2023/09/16 01:47:13;;;;;;;6.93;2.97;;;;;;;;;;4993587;28;99320;-88
2023/09/16 01:49:41;;;;;;;6.68;2.70;;;;;;;;;;4993122;28;102660;-87
2023/09/16 01:52:08;;;;;;;6.97;3.22;;;;;;;;;;4995276;28;102515;-87
2023/09/16 01:54:35;;;;;;;6.03;2.58;;;;;;;;;;4992225;28;99324;-87
2023/09/16 01:57:01;;;;;;;7.43;2.80;;;;;;;;;;5010142;28;98288;-87
2023/09/16 01:59:28;;;;;;;5.97;2.70;;;;;;;;;;4991758;28;98773;-87
2023/09/16 02:01:55;;;;;;;7.25;3.00;;;;;;;;;;4975609;28;101579;-87
2023/09/16 02:04:21;;;;;;;5.93;2.85;;;;;;;;;;5008996;28;100425;-88
2023/09/16 02:06:48;;;;;;;7.13;2.85;;;;;;;;;;4992162;28;98508;-88
2023/09/16 02:09:14;;;;;;;6.68;2.83;;;;;;;;;;4991803;28;101648;-88
2023/09/16 02:11:41;;;;;;;6.47;2.70;;;;;;;;;;4988812;28;101851;-88
2023/09/16 02:14:10;;;;;;;7.53;2.80;;;;;;;;;;4974302;28;99024;-87
2023/09/16 02:16:37;;;;;;;5.60;2.70;;;;;;;;;;4987971;28;102261;-88
2023/09/16 02:19:05;;;;;;;5.90;2.83;;;;;;;;;;4988352;28;98633;-87
2023/09/16 02:21:33;;;;;;;7.00;2.95;;;;;;;;;;4988331;28;98859;-86
2023/09/16 02:23:59;;;;;;;6.03;2.65;;;;;;;;;;4987002;28;101547;-86
2023/09/16 02:26:26;;;;;;;6.25;2.85;;;;;;;;;;4989388;28;99009;-86
2023/09/16 02:28:53;;;;;;;6.55;3.22;;;;;;;;;;4987910;28;99887;-86
2023/09/16 02:31:20;;;;;;;5.97;2.40;;;;;;;;;;4987139;28;102243;-85
2023/09/16 02:33:46;;;;;;;6.97;2.92;;;;;;;;;;4989941;28;100033;-88
2023/09/16 02:36:15;;;;;;;8.38;2.90;;;;;;;;;;4974634;28;101130;-87
2023/09/16 02:38:42;;;;;;;;;;;;;;;;;;4988890;28;98549;-89
2023/09/16 02:41:11;;;;;;;8.32;2.60;;;;;;;;;;4976013;28;101129;-86
2023/09/16 02:43:38;;;;;;;7.38;2.90;;;;;;;;;;4987177;28;102103;-87
2023/09/16 02:46:04;;;;;;;7.85;2.88;;;;;;;;;;4971492;28;97832;-87
2023/09/16 02:48:31;;;;;;;9.13;2.80;;;;;;;;;;4971444;28;100550;-87
2023/09/16 02:50:58;;;;;;;;;;;;;;;;;;4987863;28;100295;-87
2023/09/16 02:53:25;;;;;;;6.55;2.80;;;;;;;;;;4987822;28;99387;-87
2023/09/16 02:55:53;;;;;;;5.45;2.53;;;;;;;;;;4986940;28;99952;-86
2023/09/16 02:58:20;;;;;;;6.50;2.85;;;;;;;;;;4991257;28;99251;-86
2023/09/16 03:00:47;;;;;;;5.20;2.63;;;;;;;;;;4970737;28;101392;-86
2023/09/16 03:03:15;;;;;;;7.35;2.70;;;;;;;;;;4982046;28;101645;-87
2023/09/16 03:05:45;;;;;;;6.90;2.53;;;;;;;;;;4978596;28;99172;-87
2023/09/16 03:08:15;;;;;;;6.35;2.88;;;;;;;;;;4971410;28;101394;-87
2023/09/16 03:10:44;;;;;;;6.88;2.65;;;;;;;;;;4988780;28;100948;-87
2023/09/16 03:13:11;;;;;;;8.98;3.03;;;;;;;;;;4977249;28;98735;-86
2023/09/16 03:15:43;;;;;;;7.05;2.90;;;;;;;;;;4998696;28;99105;-86
2023/09/16 03:18:10;;;;;;;6.20;2.47;;;;;;;;;;4973291;28;102404;-87
2023/09/16 03:20:40;;;;;;;6.40;2.75;;;;;;;;;;4969945;28;98610;-87
2023/09/16 03:23:08;;;;;;;5.72;2.30;;;;;;;;;;4979663;28;99110;-87
2023/09/16 03:25:34;;;;;;;5.90;2.67;;;;;;;;;;4956147;28;98564;-87
2023/09/16 03:28:01;;;;;;;5.65;2.70;;;;;;;;;;4986221;28;101632;-87
2023/09/16 03:30:28;;;;;;;5.60;2.42;;;;;;;;;;4986741;28;100539;-86
2023/09/16 03:32:57;;;;;;;8.88;2.95;;;;;;;;;;4988200;28;99398;-88
2023/09/16 03:35:27;;;;;;;;;;;;;;;;;;4987511;28;101055;-86
2023/09/16 03:37:55;;;;;;;6.75;2.95;;;;;;;;;;4988010;28;101775;-86
2023/09/16 03:40:22;;;;;;;6.95;2.70;;;;;;;;;;4989157;28;98557;-86
2023/09/16 03:42:48;;;;;;;7.45;2.53;;;;;;;;;;4998645;28;99706;-86
2023/09/16 03:45:16;;;;;;;7.72;2.63;;;;;;;;;;4994555;28;99098;-86
2023/09/16 03:47:55;;;;;;;5.13;2.40;;;;;;;;;;4991634;28;101503;-86
2023/09/16 03:50:22;;;;;;;6.72;2.92;;;;;;;;;;4971855;28;101969;-87
2023/09/16 03:52:49;;;;;;;6.00;2.50;;;;;;;;;;4988764;28;98643;-87
2023/09/16 03:55:15;;;;;;;6.00;2.63;;;;;;;;;;4987144;28;99307;-87
2023/09/16 03:57:43;;;;;;;;;;;;;;;;;;4987581;28;101768;-87
2023/09/16 04:00:10;;;;;;;6.05;2.67;;;;;;;;;;4992839;28;102222;-87
2023/09/16 04:02:40;;;;;;;6.88;2.60;;;;;;;;;;4991685;28;98638;-87
2023/09/16 04:05:07;;;;;;;5.72;2.70;;;;;;;;;;4986807;28;99051;-86
2023/09/16 04:07:36;;;;;;;6.57;2.60;;;;;;;;;;4970547;28;101574;-87
2023/09/16 04:10:07;;;;;;;5.88;2.72;;;;;;;;;;4988166;28;102124;-84
2023/09/16 04:12:34;;;;;;;6.40;2.63;;;;;;;;;;4992202;28;98486;-86
2023/09/16 04:15:00;;;;;;;6.07;2.60;;;;;;;;;;5009686;28;100959;-86
2023/09/16 04:17:27;;;;;;;6.10;2.70;;;;;;;;;;5011770;28;99240;-87
2023/09/16 04:19:54;;;;;;;5.72;2.60;;;;;;;;;;4980600;28;99108;-86
2023/09/16 04:22:21;;;;;;;6.40;2.65;;;;;;;;;;5018439;28;99277;-86
2023/09/16 04:24:48;;;;;;;6.20;2.92;;;;;;;;;;4998617;28;100205;-86
2023/09/16 04:27:15;;;;;;;5.25;2.65;;;;;;;;;;4994030;28;99828;-86
2023/09/16 04:29:42;;;;;;;5.38;2.47;;;;;;;;;;5009969;28;100944;-87
2023/09/16 04:32:09;;;;;;;6.45;2.50;;;;;;;;;;5011169;27;99521;-87
2023/09/16 04:34:35;;;;;;;6.75;2.58;;;;;;;;;;5032685;28;98571;-88
2023/09/16 04:37:03;;;;;;;6.22;2.80;;;;;;;;;;5014024;28;101012;-88
2023/09/16 04:39:30;;;;;;;5.72;2.67;;;;;;;;;;5014828;28;98450;-88
2023/09/16 04:41:56;;;;;;;5.57;2.53;;;;;;;;;;5001025;28;101630;-87
2023/09/16 04:44:23;;;;;;;5.50;2.72;;;;;;;;;;4996836;28;101031;-87
2023/09/16 04:46:54;;;;;;;6.47;2.50;;;;;;;;;;5005006;28;98848;-87
2023/09/16 04:49:24;;;;;;;5.40;2.60;;;;;;;;;;4988177;28;100159;-86
2023/09/16 04:51:51;;;;;;;;;;;;;;;;;;5007444;28;98646;-86
2023/09/16 04:54:20;;;;;;;6.40;2.72;;;;;;;;;;4994214;28;100775;-87
2023/09/16 04:56:47;;;;;;;7.50;2.78;;;;;;;;;;5011754;28;99838;-87
2023/09/16 04:59:13;;;;;;;7.30;2.65;;;;;;;;;;4992652;28;99020;-85
2023/09/16 05:01:40;;;;;;;6.55;2.55;;;;;;;;;;4992422;28;99121;-86
2023/09/16 05:04:07;;;;;;;7.25;2.70;;;;;;;;;;5009681;28;99958;-84
2023/09/16 05:06:34;;;;;;;5.97;2.72;;;;;;;;;;4991823;28;99318;-85
2023/09/16 05:09:00;;;;;;;5.22;2.42;;;;;;;;;;4994620;28;101928;-85
2023/09/16 05:11:27;;;;;;;5.43;2.65;;;;;;;;;;4992202;28;99543;-85
2023/09/16 05:13:58;;;;;;;5.65;2.42;;;;;;;;;;4989289;28;101812;-89
2023/09/16 05:16:25;;;;;;;6.28;2.92;;;;;;;;;;4991703;28;99389;-87
2023/09/16 05:18:57;;;;;;;9.13;3.03;;;;;;;;;;4989978;28;98847;-87
2023/09/16 05:21:23;;;;;;;5.47;2.50;;;;;;;;;;4989313;28;101430;-88
2023/09/16 05:23:53;;;;;;;5.18;2.55;;;;;;;;;;4991141;28;99778;-88
2023/09/16 05:26:23;;;;;;;5.88;2.85;;;;;;;;;;4974302;28;98565;-87
2023/09/16 05:28:50;;;;;;;5.40;2.50;;;;;;;;;;4987506;28;101836;-88
2023/09/16 05:31:17;;;;;;;4.90;2.33;;;;;;;;;;4977444;28;102151;-87
2023/09/16 05:33:45;;;;;;;7.38;2.67;;;;;;;;;;4978687;28;101420;-84
2023/09/16 05:36:11;;;;;;;6.25;2.63;;;;;;;;;;5006325;28;99043;-85
2023/09/16 05:38:38;;;;;;;7.82;3.20;;;;;;;;;;4973615;28;97962;-85
2023/09/16 05:41:05;;;;;;;7.63;2.58;;;;;;;;;;4993319;28;100963;-86
2023/09/16 05:43:32;;;;;;;6.03;2.65;;;;;;;;;;4989207;28;99167;-86
2023/09/16 05:46:01;;;;;;;6.32;2.58;;;;;;;;;;4985963;28;99738;-86
2023/09/16 05:48:28;;;;;;;5.43;2.60;;;;;;;;;;4987803;28;102320;-86
2023/09/16 05:50:59;;;;;;;4.82;2.50;;;;;;;;;;4989534;28;99122;-84
2023/09/16 05:53:28;;;;;;;6.72;2.53;;;;;;;;;;4990901;28;98414;-84
2023/09/16 05:56:00;;;;;;;6.70;2.72;;;;;;;;;;4985714;28;101511;-84
2023/09/16 05:58:27;;;;;;;5.68;2.42;;;;;;;;;;4985737;28;99022;-85
2023/09/16 06:00:57;;;;;;;5.05;2.55;;;;;;;;;;4987611;28;98470;-83
2023/09/16 06:03:25;;;;;;;6.78;2.70;;;;;;;;;;4987078;28;98694;-84
2023/09/16 06:05:58;;;;;;;6.47;2.80;;;;;;;;;;4974191;28;98538;-85
2023/09/16 06:08:25;;;;;;;5.72;2.40;;;;;;;;;;4987894;28;99085;-85
2023/09/16 06:10:51;;;;;;;4.68;2.45;;;;;;;;;;4985909;28;99904;-85
2023/09/16 06:13:18;;;;;;;6.95;2.55;;;;;;;;;;4982922;28;98918;-85
2023/09/16 06:15:45;;;;;;;6.25;2.55;;;;;;;;;;4982633;28;102374;-86
2023/09/16 06:18:11;;;;;;;6.63;2.72;;;;;;;;;;4973270;28;98624;-88
2023/09/16 06:20:39;;;;;;;6.13;2.63;;;;;;;;;;4988206;28;101886;-88
2023/09/16 06:23:06;;;;;;;5.97;2.50;;;;;;;;;;4961921;28;102657;-88
2023/09/16 06:25:34;;;;;;;6.47;2.70;;;;;;;;;;4990303;28;99215;-87
2023/09/16 06:28:00;;;;;;;;;;;;;;;;;;4987011;28;101776;-86
2023/09/16 06:30:27;;;;;;;6.30;2.42;;;;;;;;;;4986605;28;101847;-86
2023/09/16 06:32:55;;;;;;;6.57;2.67;;;;;;;;;;4986512;28;98502;-86
2023/09/16 06:35:22;;;;;;;8.80;2.67;;;;;;;;;;4988477;28;100404;-86
2023/09/16 06:37:52;;;;;;;7.57;2.70;;;;;;;;;;4985415;28;99915;-86
2023/09/16 06:40:19;;;;;;;6.43;2.70;;;;;;;;;;4985367;28;99420;-85
2023/09/16 06:42:45;;;;;;;6.70;2.70;;;;;;;;;;4992006;28;99115;-89
2023/09/16 06:45:16;;;;;;;6.97;2.65;;;;;;;;;;4987011;28;98875;-89
2023/09/16 06:47:44;;;;;;;6.30;2.90;;;;;;;;;;4989742;28;98998;-89
2023/09/16 06:50:11;;;;;;;7.03;2.92;;;;;;;;;;4986526;28;102088;-89
2023/09/16 06:52:38;;;;;;;7.28;2.70;;;;;;;;;;4989820;28;97961;-88
2023/09/16 06:55:04;;;;;;;6.60;2.65;;;;;;;;;;4990218;28;98930;-88
2023/09/16 06:57:31;;;;;;;8.82;3.13;;;;;;;;;;4990309;28;98860;-90
2023/09/16 07:00:16;;;;;;;7.13;2.90;;;;;;;;;;4995466;28;99401;-89
2023/09/16 07:02:43;;;;;;;7.32;3.30;;;;;;;;;;4976184;28;100747;-89
2023/09/16 07:05:10;;;;;;;7.65;3.05;;;;;;;;;;4980390;28;98513;-88
2023/09/16 07:07:38;;;;;;;7.63;3.13;;;;;;;;;;4975674;28;101570;-88
2023/09/16 07:10:05;;;;;;;6.40;2.95;;;;;;;;;;4978379;28;98715;-88
2023/09/16 07:12:32;;;;;;;7.25;2.72;;;;;;;;;;4989127;28;99012;-86
2023/09/16 07:14:58;;;;;;;6.45;2.88;;;;;;;;;;5007278;28;99704;-88
2023/09/16 07:17:25;;;;;;;7.13;3.15;;;;;;;;;;5009285;28;98688;-90
2023/09/16 07:19:52;;;;;;;8.70;3.25;;;;;;;;;;4979369;28;98695;-89
2023/09/16 07:22:20;;;;;;;7.93;3.17;;;;;;;;;;5007019;28;99699;-88
2023/09/16 07:24:46;;;;;;;8.77;3.30;;;;;;;;;;4994174;28;99224;-87
2023/09/16 07:27:13;;;;;;;11.18;3.30;;;;;;;;;;5012136;28;99509;-87
2023/09/16 07:29:42;;;;;;;7.60;3.10;;;;;;;;;;4990250;28;100151;-87
2023/09/16 07:32:09;;;;;;;10.68;3.78;;;;;;;;;;4990270;28;99116;-82
2023/09/16 07:34:35;;;;;;;13.05;3.90;;;;;;;;;;4987757;28;101198;-82
2023/09/16 07:37:03;;;;;;;11.45;3.38;;;;;;;;;;5005173;28;99477;-82
2023/09/16 07:39:30;;;;;;;10.90;3.25;;;;;;;;;;4988138;28;98625;-82
2023/09/16 07:41:58;;;;;;;16.88;3.83;;;;;;;;;;4992765;28;98877;-88
2023/09/16 07:44:26;;;;;;;7.25;2.90;;;;;;;;;;4992615;28;99110;-86
2023/09/16 07:46:53;;;;;;;7.72;3.00;;;;;;;;;;5007506;28;99354;-86
2023/09/16 07:49:19;;;;;;;9.25;3.40;;;;;;;;;;5011659;28;99891;-85
2023/09/16 07:51:49;;;;;;;6.90;2.85;;;;;;;;;;4995391;28;98617;-87
2023/09/16 07:54:16;;;;;;;6.40;3.00;;;;;;;;;;5014993;28;99084;-86
2023/09/16 07:56:42;;;;;;;8.23;3.05;;;;;;;;;;5002083;28;99376;-86
2023/09/16 07:59:09;;;;;;;9.52;3.13;;;;;;;;;;4989075;28;98527;-86
2023/09/16 08:01:36;;;;;;;9.95;3.22;;;;;;;;;;4993667;28;99280;-89
2023/09/16 08:04:03;;;;;;;8.90;3.08;;;;;;;;;;5007579;28;98547;-87
2023/09/16 08:06:30;;;;;;;12.88;4.80;;;;;;;;;;4973491;28;100077;-86
2023/09/16 08:08:56;;;;;;;7.22;3.00;;;;;;;;;;5003029;28;99819;-85
2023/09/16 08:11:23;;;;;;;9.00;3.53;;;;;;;;;;5003889;28;98603;-89
2023/09/16 08:13:51;;;;;;;8.80;3.55;;;;;;;;;;5009398;28;100687;-87
2023/09/16 08:16:18;;;;;;;9.20;3.40;;;;;;;;;;4993606;28;100746;-88
2023/09/16 08:18:45;;;;;;;8.90;3.17;;;;;;;;;;5006482;28;98796;-87
2023/09/16 08:21:12;;;;;;;8.55;4.10;;;;;;;;;;5014032;28;98873;-88
2023/09/16 08:23:39;;;;;;;10.20;4.20;;;;;;;;;;5005532;28;98589;-87
2023/09/16 08:26:06;;;;;;;8.70;3.65;;;;;;;;;;5009583;28;99419;-86
2023/09/16 08:28:35;;;;;;;9.75;4.32;;;;;;;;;;5031035;28;98509;-87
2023/09/16 08:31:03;;;;;;;8.70;4.60;;;;;;;;;;5007195;28;99857;-87
2023/09/16 08:33:30;;;;;;;8.65;4.43;;;;;;;;;;4991415;28;100343;-87
2023/09/16 08:35:57;;;;;;;10.98;5.13;;;;;;;;;;5022538;28;98692;-87
2023/09/16 08:38:23;;;;;;;11.68;5.20;;;;;;;;;;5001056;28;99228;-87
2023/09/16 08:40:53;;;;;;;7.10;3.42;;;;;;;;;;5003986;28;99802;-87
2023/09/16 08:43:34;;;;;;;9.48;5.07;;;;;;;;;;5011111;28;98962;-87
2023/09/16 08:46:03;;;;;;;12.00;5.07;;;;;;;;;;5015183;28;98536;-88
2023/09/16 08:48:34;;;;;;;10.02;5.22;;;;;;;;;;5009776;28;99105;-86
2023/09/16 08:51:02;;;;;;;8.32;4.53;;;;;;;;;;5003106;28;98715;-87
2023/09/16 08:53:30;;;;;;;8.95;4.20;;;;;;;;;;5011284;28;99057;-87
2023/09/16 08:55:57;;;;;;;7.97;3.45;;;;;;;;;;4979254;28;98472;-87
2023/09/16 08:58:24;;;;;;;10.57;4.97;;;;;;;;;;4992760;28;99003;-87
2023/09/16 09:00:50;;;;;;;6.35;3.45;;;;;;;;;;4992009;28;101791;-89
2023/09/16 09:03:17;;;;;;;8.10;3.35;;;;;;;;;;5008680;28;99853;-88
2023/09/16 09:05:44;;;;;;;6.30;3.13;;;;;;;;;;5010033;28;98509;-88
2023/09/16 09:08:11;;;;;;;8.82;3.20;;;;;;;;;;5013818;28;99079;-87
2023/09/16 09:10:39;;;;;;;10.23;5.70;;;;;;;;;;4991288;28;98809;-86
2023/09/16 09:13:10;;;;;;;9.65;4.45;;;;;;;;;;4996795;28;99217;-86
2023/09/16 09:15:40;;;;;;;7.40;3.28;;;;;;;;;;4992003;28;99145;-86
2023/09/16 09:18:08;;;;;;;9.88;4.18;;;;;;;;;;4993775;28;98633;-90
2023/09/16 09:20:34;;;;;;;;;;;;;;;;;;4993610;28;100385;-85
2023/09/16 09:23:04;;;;;;;7.68;3.33;;;;;;;;;;4992439;28;119474;-90
2023/09/16 09:25:36;;;;;;;7.68;3.42;;;;;;;;;;5013741;28;98495;-89
2023/09/16 09:28:03;;;;;;;6.90;2.80;;;;;;;;;;5012326;28;99198;-88
2023/09/16 09:30:31;;;;;;;;;;;;;;;;;;4990197;28;100811;-89
2023/09/16 09:32:59;;;;;;;9.38;3.55;;;;;;;;;;5012200;28;100064;-90
2023/09/16 09:35:26;;;;;;;6.88;2.70;;;;;;;;;;5004341;28;98638;-88
2023/09/16 09:37:53;;;;;;;7.90;2.67;;;;;;;;;;4984367;28;98927;-88
2023/09/16 09:40:21;;;;;;;7.90;3.05;;;;;;;;;;4988596;28;100795;-89
2023/09/16 09:42:49;;;;;;;8.93;3.53;;;;;;;;;;5006924;28;99409;-89
2023/09/16 09:45:17;;;;;;;8.00;3.47;;;;;;;;;;4995611;28;97800;-90
2023/09/16 09:47:45;;;;;;;8.95;3.58;;;;;;;;;;5003725;28;99065;-90
2023/09/16 09:50:13;;;;;;;9.68;3.65;;;;;;;;;;4992611;28;100836;-90
2023/09/16 09:52:53;;;;;;;10.07;5.32;;;;;;;;;;4995113;28;99438;-89
2023/09/16 09:55:21;;;;;;;8.23;3.70;;;;;;;;;;4990825;28;102051;-84
2023/09/16 09:57:51;;;;;;;9.23;5.18;;;;;;;;;;5011564;28;98750;-87
2023/09/16 10:00:19;;;;;;;8.00;3.50;;;;;;;;;;5028896;28;98521;-89
2023/09/16 10:02:47;;;;;;;9.45;3.55;;;;;;;;;;4999620;28;99214;-86
2023/09/16 10:05:15;;;;;;;7.53;3.72;;;;;;;;;;5009792;28;98773;-86
2023/09/16 10:07:45;;;;;;;7.85;3.80;;;;;;;;;;4994919;28;98697;-84
2023/09/16 10:10:20;;;;;;;8.30;3.70;;;;;;;;;;4990875;28;101155;-83
2023/09/16 10:12:47;;;;;;;9.65;4.38;;;;;;;;;;4993221;28;98556;-83
2023/09/16 10:15:14;;;;;;;9.38;3.90;;;;;;;;;;5006979;28;99285;-84
2023/09/16 10:17:42;;;;;;;11.55;5.90;;;;;;;;;;4973782;28;99497;-84
2023/09/16 10:20:10;;;;;;;9.15;3.80;;;;;;;;;;5010779;28;100093;-85
2023/09/16 10:22:40;;;;;;;9.55;4.43;;;;;;;;;;5005989;28;100121;-84
2023/09/16 10:25:09;;;;;;;9.77;3.92;;;;;;;;;;4988879;28;98523;-85
2023/09/16 10:27:56;;;;;;;10.48;4.80;;;;;;;;;;5008748;28;99437;-86
2023/09/16 10:30:24;;;;;;;10.23;3.78;;;;;;;;;;4976289;28;99201;-84
2023/09/16 10:32:52;;;;;;;10.32;4.57;;;;;;;;;;4972485;28;98650;-85
2023/09/16 10:35:21;;;;;;;10.88;4.05;;;;;;;;;;5011350;28;98890;-84
2023/09/16 10:37:50;;;;;;;9.60;4.93;;;;;;;;;;5007285;28;98542;-84
2023/09/16 10:40:19;;;;;;;8.38;3.70;;;;;;;;;;4990106;28;98857;-85
2023/09/16 10:42:47;;;;;;;8.75;4.35;;;;;;;;;;5007108;28;99912;-85
2023/09/16 10:45:15;;;;;;;11.95;4.80;;;;;;;;;;5007256;28;98992;-84
2023/09/16 10:47:42;;;;;;;14.73;4.97;;;;;;;;;;4989177;28;100095;-83
2023/09/16 10:50:09;;;;;;;15.13;4.68;;;;;;;;;;4993561;28;98500;-85
2023/09/16 10:52:40;;;;;;;18.23;5.10;;;;;;;;;;5003763;28;98558;-84
2023/09/16 10:55:07;;;;;;;11.82;4.00;;;;;;;;;;5007486;28;98792;-84
2023/09/16 10:57:35;;;;;;;13.32;3.90;;;;;;;;;;5012141;28;99452;-85
2023/09/16 11:00:03;;;;;;;14.95;3.97;;;;;;;;;;4992060;28;98403;-84
2023/09/16 11:02:41;;;;;;;15.05;4.35;;;;;;;;;;5000444;28;99198;-84
2023/09/16 11:05:08;;;;;;;12.30;4.38;;;;;;;;;;5006278;28;98723;-85
2023/09/16 11:07:35;;;;;;;12.80;4.15;;;;;;;;;;4992565;28;99618;-86
2023/09/16 11:10:03;;;;;;;11.15;3.80;;;;;;;;;;4971968;28;100111;-85
2023/09/16 11:12:31;;;;;;;11.05;4.07;;;;;;;;;;5006717;28;98608;-81
2023/09/16 11:15:04;;;;;;;9.85;3.83;;;;;;;;;;5005745;28;99969;-83
2023/09/16 11:17:31;;;;;;;8.48;4.45;;;;;;;;;;5004712;28;98773;-81
2023/09/16 11:20:09;;;;;;;7.75;3.53;;;;;;;;;;5008581;28;99293;-82
2023/09/16 11:22:36;;;;;;;7.78;3.22;;;;;;;;;;4966751;28;102653;-82
2023/09/16 11:25:03;;;;;;;11.38;3.67;;;;;;;;;;4985136;28;98172;-82
2023/09/16 11:27:33;;;;;;;7.25;3.33;;;;;;;;;;5006809;28;99182;-81
2023/09/16 11:30:09;;;;;;;8.23;3.33;;;;;;;;;;4985592;28;99432;-79
2023/09/16 11:32:37;;;;;;;12.35;3.38;;;;;;;;;;5003499;28;99219;-80
2023/09/16 11:35:04;;;;;;;9.45;3.28;;;;;;;;;;4987311;28;102776;-80
2023/09/16 11:37:31;;;;;;;7.78;3.20;;;;;;;;;;4987079;28;101416;-81
2023/09/16 11:40:00;;;;;;;10.57;3.70;;;;;;;;;;4986244;28;98881;-80
2023/09/16 11:42:27;;;;;;;9.73;3.38;;;;;;;;;;4997429;28;98561;-81
2023/09/16 11:44:55;;;;;;;9.10;3.40;;;;;;;;;;5005412;28;99055;-83
2023/09/16 11:47:22;;;;;;;9.45;4.30;;;;;;;;;;4988692;28;101566;-87
2023/09/16 11:49:50;;;;;;;6.32;3.00;;;;;;;;;;4993487;28;98106;-86
2023/09/16 11:52:17;;;;;;;8.48;3.90;;;;;;;;;;5009662;28;98891;-88
2023/09/16 11:54:46;;;;;;;6.05;2.80;;;;;;;;;;5002652;28;99422;-86
2023/09/16 11:57:14;;;;;;;7.30;3.00;;;;;;;;;;4977942;28;102882;-88
2023/09/16 11:59:42;;;;;;;8.88;3.00;;;;;;;;;;4998670;28;98669;-86
2023/09/16 12:02:08;;;;;;;8.65;2.80;;;;;;;;;;5008047;28;99353;-84
2023/09/16 12:04:36;;;;;;;;;;;;;;;;;;4997319;28;102069;-84
2023/09/16 12:07:04;;;;;;;7.47;2.95;;;;;;;;;;5016464;28;114030;-90
2023/09/16 12:09:32;;;;;;;5.97;3.05;;;;;;;;;;5003567;28;98503;-86
2023/09/16 12:11:59;;;;;;;6.70;2.90;;;;;;;;;;5004212;28;98813;-87
2023/09/16 12:14:28;;;;;;;7.43;2.83;;;;;;;;;;4972781;28;100745;-86
2023/09/16 12:16:55;;;;;;;5.47;2.50;;;;;;;;;;5000801;28;98557;-85
2023/09/16 12:19:22;;;;;;;7.28;2.60;;;;;;;;;;5009301;28;98542;-86
2023/09/16 12:21:49;;;;;;;5.55;2.70;;;;;;;;;;5016817;28;99378;-86
2023/09/16 12:24:21;;;;;;;7.35;2.80;;;;;;;;;;5021285;28;99206;-85
2023/09/16 12:26:49;;;;;;;5.60;2.50;;;;;;;;;;5001311;28;99273;-87
2023/09/16 12:29:16;;;;;;;6.75;2.50;;;;;;;;;;5020469;28;99432;-86
2023/09/16 12:31:43;;;;;;;6.68;2.65;;;;;;;;;;5020333;28;98817;-85
2023/09/16 12:34:19;;;;;;;6.68;2.70;;;;;;;;;;5004147;28;100573;-86
2023/09/16 12:36:47;;;;;;;7.32;2.63;;;;;;;;;;4996862;28;98615;-86
2023/09/16 12:39:14;;;;;;;6.40;2.22;;;;;;;;;;5012133;28;97748;-85
2023/09/16 12:41:43;;;;;;;5.60;2.38;;;;;;;;;;4987939;28;99591;-87
2023/09/16 12:44:10;;;;;;;7.18;2.45;;;;;;;;;;4995709;28;99996;-85
2023/09/16 12:46:36;;;;;;;6.00;2.53;;;;;;;;;;5014091;28;99329;-84
2023/09/16 12:49:03;;;;;;;8.18;2.30;;;;;;;;;;4989199;28;99153;-85
2023/09/16 12:51:30;;;;;;;7.32;2.50;;;;;;;;;;5006786;28;98682;-85
2023/09/16 12:53:58;;;;;;;6.43;2.53;;;;;;;;;;5006554;28;98664;-83
2023/09/16 12:56:24;;;;;;;8.05;2.72;;;;;;;;;;5008926;28;100032;-84
2023/09/16 12:58:51;;;;;;;5.97;2.50;;;;;;;;;;4991982;28;98644;-84
2023/09/16 13:01:19;;;;;;;6.55;2.75;;;;;;;;;;4974430;28;101437;-85
2023/09/16 13:03:47;;;;;;;5.43;2.53;;;;;;;;;;4991307;28;101476;-84
2023/09/16 13:06:15;;;;;;;5.25;2.50;;;;;;;;;;5009425;28;98789;-84
2023/09/16 13:08:44;;;;;;;6.55;2.88;;;;;;;;;;5011662;28;98766;-84
2023/09/16 13:11:11;;;;;;;8.43;2.80;;;;;;;;;;5008376;28;99324;-83
2023/09/16 13:13:38;;;;;;;;;;;;;;;;;;4989907;28;99900;-84
2023/09/16 13:16:06;;;;;;;5.18;2.50;;;;;;;;;;5009197;28;99221;-84
2023/09/16 13:18:37;;;;;;;5.20;2.47;;;;;;;;;;5006141;28;98606;-83
2023/09/16 13:21:05;;;;;;;5.40;2.40;;;;;;;;;;5008644;28;99319;-86
2023/09/16 13:23:33;;;;;;;6.38;2.75;;;;;;;;;;5004730;28;100280;-87
2023/09/16 13:26:09;;;;;;;7.10;2.50;;;;;;;;;;4989490;28;98481;-86
2023/09/16 13:28:35;;;;;;;7.75;2.60;;;;;;;;;;4988573;28;99497;-86
2023/09/16 13:31:02;;;;;;;5.78;2.55;;;;;;;;;;5010814;28;99176;-85
2023/09/16 13:33:29;;;;;;;;;;;;;;;;;;4989582;28;98889;-84
2023/09/16 13:35:56;;;;;;;5.35;2.42;;;;;;;;;;5008826;28;100352;-84
2023/09/16 13:38:22;;;;;;;7.35;2.70;;;;;;;;;;5006768;28;98853;-85
2023/09/16 13:40:49;;;;;;;5.90;2.58;;;;;;;;;;4991220;28;100024;-85
2023/09/16 13:43:16;;;;;;;5.68;2.58;;;;;;;;;;5007669;28;99798;-84
2023/09/16 13:45:43;;;;;;;9.43;2.65;;;;;;;;;;5008358;28;99007;-84
2023/09/16 13:48:10;;;;;;;7.28;3.05;;;;;;;;;;4998189;28;98622;-86
2023/09/16 13:50:41;;;;;;;6.32;2.45;;;;;;;;;;4985394;28;101888;-84
2023/09/16 13:53:09;;;;;;;6.38;2.50;;;;;;;;;;5013463;28;98158;-84
2023/09/16 13:55:35;;;;;;;5.00;2.22;;;;;;;;;;5008718;28;99276;-86
2023/09/16 13:58:02;;;;;;;6.88;2.40;;;;;;;;;;5010162;28;99029;-86
2023/09/16 14:00:29;;;;;;;5.65;2.70;;;;;;;;;;4991067;28;101903;-85
2023/09/16 14:02:57;;;;;;;4.85;2.38;;;;;;;;;;4982832;28;100372;-85
2023/09/16 14:05:25;;;;;;;6.38;2.63;;;;;;;;;;5009135;28;98866;-86
2023/09/16 14:07:53;;;;;;;6.45;2.83;;;;;;;;;;4992197;28;101503;-84
2023/09/16 14:10:22;;;;;;;6.10;2.67;;;;;;;;;;4985940;28;99509;-84
2023/09/16 14:12:49;;;;;;;6.95;2.90;;;;;;;;;;4991952;28;99046;-85
2023/09/16 14:15:16;;;;;;;5.30;2.60;;;;;;;;;;5012800;28;98995;-85
2023/09/16 14:17:43;;;;;;;7.25;2.80;;;;;;;;;;5009164;28;97783;-85
2023/09/16 14:20:10;;;;;;;6.32;2.75;;;;;;;;;;4992632;28;98672;-84
2023/09/16 14:22:37;;;;;;;6.55;2.83;;;;;;;;;;4991001;28;99414;-84
2023/09/16 14:25:04;;;;;;;5.28;2.50;;;;;;;;;;5007595;28;99461;-85
2023/09/16 14:27:31;;;;;;;6.72;2.67;;;;;;;;;;4998275;28;99522;-84
2023/09/16 14:29:58;;;;;;;6.18;3.00;;;;;;;;;;5001377;28;99261;-84
2023/09/16 14:32:25;;;;;;;5.85;2.65;;;;;;;;;;5010273;28;98860;-85
2023/09/16 14:34:52;;;;;;;6.38;2.90;;;;;;;;;;5000213;28;98934;-85
2023/09/16 14:37:19;;;;;;;6.90;2.80;;;;;;;;;;5008918;28;99969;-84
2023/09/16 14:39:46;;;;;;;6.82;2.90;;;;;;;;;;4990122;28;102587;-84
2023/09/16 14:42:16;;;;;;;6.75;2.80;;;;;;;;;;4995849;28;99039;-84
2023/09/16 14:44:43;;;;;;;8.20;3.08;;;;;;;;;;4986970;28;98622;-84